sensor_id;sensor_type;location;lat;lon;timestamp;pressure;altitude;pressure_sealevel;temperature;humidity
19150;BME280;9707;49.158;8.632;2023-06-26T00:00:22;100241.09;;;30.70;32.61
19150;BME280;9707;49.158;8.632;2023-06-26T00:02:47;100244.88;;;30.69;33.00
19150;BME280;9707;49.158;8.632;2023-06-26T00:05:12;100243.19;;;30.68;33.05
19150;BME280;9707;49.158;8.632;2023-06-26T00:07:39;100248.88;;;30.67;32.78
19150;BME280;9707;49.158;8.632;2023-06-26T00:10:04;100243.53;;;30.65;32.88
19150;BME280;9707;49.158;8.632;2023-06-26T00:12:30;100250.94;;;30.65;32.96
19150;BME280;9707;49.158;8.632;2023-06-26T00:14:56;100254.72;;;30.64;32.95
19150;BME280;9707;49.158;8.632;2023-06-26T00:17:25;100260.44;;;30.62;32.46
19150;BME280;9707;49.158;8.632;2023-06-26T00:19:50;100259.75;;;30.60;32.67
19150;BME280;9707;49.158;8.632;2023-06-26T00:22:15;100260.97;;;30.58;32.85
19150;BME280;9707;49.158;8.632;2023-06-26T00:24:41;100251.88;;;30.57;32.63
19150;BME280;9707;49.158;8.632;2023-06-26T00:27:06;100250.38;;;30.55;32.84
19150;BME280;9707;49.158;8.632;2023-06-26T00:29:32;100251.41;;;30.54;32.95
19150;BME280;9707;49.158;8.632;2023-06-26T00:31:57;100254.34;;;30.52;33.23
19150;BME280;9707;49.158;8.632;2023-06-26T00:34:22;100251.78;;;30.51;32.86
19150;BME280;9707;49.158;8.632;2023-06-26T00:36:47;100255.59;;;30.50;32.91
19150;BME280;9707;49.158;8.632;2023-06-26T00:39:13;100252.16;;;30.48;33.13
19150;BME280;9707;49.158;8.632;2023-06-26T00:41:39;100255.97;;;30.47;33.39
19150;BME280;9707;49.158;8.632;2023-06-26T00:44:05;100258.88;;;30.45;33.57
19150;BME280;9707;49.158;8.632;2023-06-26T00:46:30;100257.19;;;30.44;33.26
19150;BME280;9707;49.158;8.632;2023-06-26T00:48:58;100248.06;;;30.44;33.55
19150;BME280;9707;49.158;8.632;2023-06-26T00:51:24;100245.31;;;30.44;33.24
19150;BME280;9707;49.158;8.632;2023-06-26T00:53:49;100252.06;;;30.41;33.33
19150;BME280;9707;49.158;8.632;2023-06-26T00:56:15;100253.97;;;30.41;33.04
19150;BME280;9707;49.158;8.632;2023-06-26T00:58:41;100256.25;;;30.37;33.27
19150;BME280;9707;49.158;8.632;2023-06-26T01:01:06;100245.44;;;30.36;33.57
19150;BME280;9707;49.158;8.632;2023-06-26T01:03:34;100246.50;;;30.35;33.14
19150;BME280;9707;49.158;8.632;2023-06-26T01:05:59;100248.56;;;30.33;33.31
19150;BME280;9707;49.158;8.632;2023-06-26T01:08:26;100243.06;;;30.33;33.66
19150;BME280;9707;49.158;8.632;2023-06-26T01:10:52;100245.81;;;30.33;33.33
19150;BME280;9707;49.158;8.632;2023-06-26T01:13:17;100244.28;;;30.30;33.26
19150;BME280;9707;49.158;8.632;2023-06-26T01:15:43;100240.69;;;30.30;33.40
19150;BME280;9707;49.158;8.632;2023-06-26T01:18:08;100240.88;;;30.28;33.56
19150;BME280;9707;49.158;8.632;2023-06-26T01:20:37;100249.31;;;30.27;33.47
19150;BME280;9707;49.158;8.632;2023-06-26T01:23:23;100251.41;;;30.25;33.56
19150;BME280;9707;49.158;8.632;2023-06-26T01:26:16;100239.72;;;30.23;33.72
19150;BME280;9707;49.158;8.632;2023-06-26T01:28:42;100234.63;;;30.20;33.65
19150;BME280;9707;49.158;8.632;2023-06-26T01:31:10;100242.00;;;30.19;33.73
19150;BME280;9707;49.158;8.632;2023-06-26T01:33:36;100240.13;;;30.20;33.74
19150;BME280;9707;49.158;8.632;2023-06-26T01:36:01;100241.16;;;30.19;33.93
19150;BME280;9707;49.158;8.632;2023-06-26T01:38:27;100242.19;;;30.18;33.31
19150;BME280;9707;49.158;8.632;2023-06-26T01:40:53;100231.38;;;30.16;33.56
19150;BME280;9707;49.158;8.632;2023-06-26T01:43:41;100222.47;;;30.14;33.93
19150;BME280;9707;49.158;8.632;2023-06-26T01:46:18;100234.53;;;30.13;33.62
19150;BME280;9707;49.158;8.632;2023-06-26T01:49:02;100224.75;;;30.11;33.76
19150;BME280;9707;49.158;8.632;2023-06-26T01:51:39;100225.78;;;30.10;33.36
19150;BME280;9707;49.158;8.632;2023-06-26T01:54:10;100230.59;;;30.08;33.14
19150;BME280;9707;49.158;8.632;2023-06-26T01:56:39;100233.50;;;30.06;33.46
19150;BME280;9707;49.158;8.632;2023-06-26T01:59:05;100235.44;;;30.06;33.57
19150;BME280;9707;49.158;8.632;2023-06-26T02:01:32;100232.88;;;30.04;33.91
19150;BME280;9707;49.158;8.632;2023-06-26T02:03:59;100225.66;;;30.03;33.86
19150;BME280;9707;49.158;8.632;2023-06-26T02:06:24;100226.72;;;30.02;33.97
19150;BME280;9707;49.158;8.632;2023-06-26T02:08:49;100239.59;;;30.02;33.93
19150;BME280;9707;49.158;8.632;2023-06-26T02:11:14;100237.88;;;30.01;34.31
19150;BME280;9707;49.158;8.632;2023-06-26T02:13:40;100240.63;;;30.01;33.73
19150;BME280;9707;49.158;8.632;2023-06-26T02:16:05;100238.94;;;30.00;33.65
19150;BME280;9707;49.158;8.632;2023-06-26T02:18:30;100241.84;;;29.98;33.95
19150;BME280;9707;49.158;8.632;2023-06-26T02:20:55;100238.44;;;29.96;33.65
19150;BME280;9707;49.158;8.632;2023-06-26T02:23:21;100237.78;;;29.94;33.80
19150;BME280;9707;49.158;8.632;2023-06-26T02:25:46;100240.69;;;29.93;33.62
19150;BME280;9707;49.158;8.632;2023-06-26T02:28:11;100231.63;;;29.92;33.71
19150;BME280;9707;49.158;8.632;2023-06-26T02:30:36;100238.34;;;29.90;33.83
19150;BME280;9707;49.158;8.632;2023-06-26T02:33:02;100242.13;;;29.89;33.61
19150;BME280;9707;49.158;8.632;2023-06-26T02:35:27;100236.81;;;29.87;33.55
19150;BME280;9707;49.158;8.632;2023-06-26T02:37:52;100239.75;;;29.86;33.83
19150;BME280;9707;49.158;8.632;2023-06-26T02:40:18;100231.69;;;29.84;33.70
19150;BME280;9707;49.158;8.632;2023-06-26T02:42:43;100234.63;;;29.83;34.03
19150;BME280;9707;49.158;8.632;2023-06-26T02:45:09;100241.16;;;29.82;34.02
19150;BME280;9707;49.158;8.632;2023-06-26T02:47:34;100238.41;;;29.82;34.16
19150;BME280;9707;49.158;8.632;2023-06-26T02:49:59;100241.31;;;29.80;34.29
19150;BME280;9707;49.158;8.632;2023-06-26T02:52:25;100235.00;;;29.80;34.27
19150;BME280;9707;49.158;8.632;2023-06-26T02:54:50;100238.59;;;29.80;34.66
19150;BME280;9707;49.158;8.632;2023-06-26T02:57:15;100240.50;;;29.80;34.13
19150;BME280;9707;49.158;8.632;2023-06-26T02:59:42;100239.63;;;29.79;34.11
19150;BME280;9707;49.158;8.632;2023-06-26T03:02:07;100241.53;;;29.79;34.33
19150;BME280;9707;49.158;8.632;2023-06-26T03:04:32;100247.22;;;29.77;34.55
19150;BME280;9707;49.158;8.632;2023-06-26T03:07:01;100241.91;;;29.76;34.35
19150;BME280;9707;49.158;8.632;2023-06-26T03:09:27;100238.50;;;29.74;34.03
19150;BME280;9707;49.158;8.632;2023-06-26T03:11:52;100239.50;;;29.73;34.15
19150;BME280;9707;49.158;8.632;2023-06-26T03:14:18;100237.81;;;29.72;34.22
19150;BME280;9707;49.158;8.632;2023-06-26T03:16:43;100239.72;;;29.71;34.09
19150;BME280;9707;49.158;8.632;2023-06-26T03:19:09;100237.97;;;29.70;34.16
19150;BME280;9707;49.158;8.632;2023-06-26T03:21:34;100234.59;;;29.68;34.38
19150;BME280;9707;49.158;8.632;2023-06-26T03:23:59;100244.91;;;29.66;34.39
19150;BME280;9707;49.158;8.632;2023-06-26T03:26:24;100249.34;;;29.67;34.05
19150;BME280;9707;49.158;8.632;2023-06-26T03:28:53;100244.91;;;29.66;34.33
19150;BME280;9707;49.158;8.632;2023-06-26T03:31:18;100245.91;;;29.65;34.26
19150;BME280;9707;49.158;8.632;2023-06-26T03:33:43;100242.50;;;29.63;34.48
19150;BME280;9707;49.158;8.632;2023-06-26T03:36:09;100248.19;;;29.62;34.20
19150;BME280;9707;49.158;8.632;2023-06-26T03:38:34;100241.88;;;29.61;34.52
19150;BME280;9707;49.158;8.632;2023-06-26T03:40:59;100248.19;;;29.62;34.53
19150;BME280;9707;49.158;8.632;2023-06-26T03:43:25;100248.19;;;29.62;34.57
19150;BME280;9707;49.158;8.632;2023-06-26T03:45:50;100247.53;;;29.60;34.25
19150;BME280;9707;49.158;8.632;2023-06-26T03:48:15;100244.78;;;29.60;34.23
19150;BME280;9707;49.158;8.632;2023-06-26T03:50:40;100249.59;;;29.58;34.10
19150;BME280;9707;49.158;8.632;2023-06-26T03:53:06;100239.66;;;29.57;34.05
19150;BME280;9707;49.158;8.632;2023-06-26T03:55:31;100251.66;;;29.56;34.46
19150;BME280;9707;49.158;8.632;2023-06-26T03:57:56;100244.47;;;29.55;34.50
19150;BME280;9707;49.158;8.632;2023-06-26T04:00:21;100250.97;;;29.54;34.79
19150;BME280;9707;49.158;8.632;2023-06-26T04:02:47;100247.53;;;29.52;34.51
19150;BME280;9707;49.158;8.632;2023-06-26T04:05:12;100256.81;;;29.51;34.64
19150;BME280;9707;49.158;8.632;2023-06-26T04:07:37;100246.03;;;29.49;34.46
19150;BME280;9707;49.158;8.632;2023-06-26T04:10:03;100253.41;;;29.49;34.35
19150;BME280;9707;49.158;8.632;2023-06-26T04:12:28;100260.78;;;29.48;34.64
19150;BME280;9707;49.158;8.632;2023-06-26T04:14:53;100258.22;;;29.47;34.51
19150;BME280;9707;49.158;8.632;2023-06-26T04:17:19;100264.56;;;29.47;34.61
19150;BME280;9707;49.158;8.632;2023-06-26T04:19:44;100271.94;;;29.47;34.68
19150;BME280;9707;49.158;8.632;2023-06-26T04:22:10;100264.75;;;29.46;34.38
19150;BME280;9707;49.158;8.632;2023-06-26T04:24:35;100268.53;;;29.45;35.16
19150;BME280;9707;49.158;8.632;2023-06-26T04:27:00;100265.63;;;29.46;35.20
19150;BME280;9707;49.158;8.632;2023-06-26T04:29:26;100269.19;;;29.47;35.11
19150;BME280;9707;49.158;8.632;2023-06-26T04:31:52;100261.84;;;29.47;34.61
19150;BME280;9707;49.158;8.632;2023-06-26T04:34:17;100267.31;;;29.47;34.79
19150;BME280;9707;49.158;8.632;2023-06-26T04:36:42;100271.13;;;29.46;34.87
19150;BME280;9707;49.158;8.632;2023-06-26T04:39:11;100264.75;;;29.46;34.32
19150;BME280;9707;49.158;8.632;2023-06-26T04:41:37;100270.25;;;29.46;34.48
19150;BME280;9707;49.158;8.632;2023-06-26T04:44:02;100264.94;;;29.44;33.99
19150;BME280;9707;49.158;8.632;2023-06-26T04:46:27;100263.41;;;29.42;33.87
19150;BME280;9707;49.158;8.632;2023-06-26T04:48:53;100265.50;;;29.40;34.20
19150;BME280;9707;49.158;8.632;2023-06-26T04:51:18;100273.03;;;29.38;34.18
19150;BME280;9707;49.158;8.632;2023-06-26T04:53:45;100263.28;;;29.35;33.94
19150;BME280;9707;49.158;8.632;2023-06-26T04:56:11;100266.22;;;29.34;34.12
19150;BME280;9707;49.158;8.632;2023-06-26T04:58:36;100257.31;;;29.32;34.06
19150;BME280;9707;49.158;8.632;2023-06-26T05:01:01;100266.56;;;29.31;34.29
19150;BME280;9707;49.158;8.632;2023-06-26T05:03:26;100262.31;;;29.28;34.36
19150;BME280;9707;49.158;8.632;2023-06-26T05:05:52;100259.72;;;29.27;34.33
19150;BME280;9707;49.158;8.632;2023-06-26T05:08:22;100265.22;;;29.27;34.55
19150;BME280;9707;49.158;8.632;2023-06-26T05:10:48;100259.06;;;29.25;34.52
19150;BME280;9707;49.158;8.632;2023-06-26T05:13:13;100260.13;;;29.24;34.63
19150;BME280;9707;49.158;8.632;2023-06-26T05:15:42;100255.66;;;29.23;34.81
19150;BME280;9707;49.158;8.632;2023-06-26T05:18:08;100263.03;;;29.22;34.77
19150;BME280;9707;49.158;8.632;2023-06-26T05:20:34;100254.97;;;29.21;34.63
19150;BME280;9707;49.158;8.632;2023-06-26T05:23:01;100262.38;;;29.20;34.88
19150;BME280;9707;49.158;8.632;2023-06-26T05:25:28;100262.38;;;29.20;35.01
19150;BME280;9707;49.158;8.632;2023-06-26T05:27:54;100262.56;;;29.19;35.10
19150;BME280;9707;49.158;8.632;2023-06-26T05:30:20;100267.66;;;29.22;35.63
19150;BME280;9707;49.158;8.632;2023-06-26T05:32:46;100260.28;;;29.22;35.52
19150;BME280;9707;49.158;8.632;2023-06-26T05:35:12;100263.91;;;29.23;35.41
19150;BME280;9707;49.158;8.632;2023-06-26T05:37:38;100262.84;;;29.24;35.75
19150;BME280;9707;49.158;8.632;2023-06-26T05:40:04;100266.44;;;29.24;35.78
19150;BME280;9707;49.158;8.632;2023-06-26T05:42:30;100262.69;;;29.25;35.70
19150;BME280;9707;49.158;8.632;2023-06-26T05:44:56;100262.69;;;29.25;35.59
19150;BME280;9707;49.158;8.632;2023-06-26T05:47:21;100261.66;;;29.26;35.52
19150;BME280;9707;49.158;8.632;2023-06-26T05:49:46;100260.59;;;29.27;35.47
19150;BME280;9707;49.158;8.632;2023-06-26T05:52:12;100265.91;;;29.29;35.74
19150;BME280;9707;49.158;8.632;2023-06-26T05:54:38;100259.38;;;29.30;35.79
19150;BME280;9707;49.158;8.632;2023-06-26T05:57:04;100266.56;;;29.31;35.72
19150;BME280;9707;49.158;8.632;2023-06-26T05:59:31;100265.53;;;29.32;35.88
19150;BME280;9707;49.158;8.632;2023-06-26T06:01:57;100268.28;;;29.32;35.54
19150;BME280;9707;49.158;8.632;2023-06-26T06:04:22;100269.97;;;29.33;35.79
19150;BME280;9707;49.158;8.632;2023-06-26T06:06:47;100268.97;;;29.34;35.33
19150;BME280;9707;49.158;8.632;2023-06-26T06:09:12;100270.66;;;29.35;35.09
19150;BME280;9707;49.158;8.632;2023-06-26T06:11:38;100264.31;;;29.34;34.68
19150;BME280;9707;49.158;8.632;2023-06-26T06:14:03;100270.66;;;29.35;34.71
19150;BME280;9707;49.158;8.632;2023-06-26T06:16:28;100269.63;;;29.36;34.65
19150;BME280;9707;49.158;8.632;2023-06-26T06:18:54;100268.59;;;29.37;34.55
19150;BME280;9707;49.158;8.632;2023-06-26T06:21:20;100264.81;;;29.38;34.83
19150;BME280;9707;49.158;8.632;2023-06-26T06:23:45;100270.97;;;29.40;34.69
19150;BME280;9707;49.158;8.632;2023-06-26T06:26:10;100273.53;;;29.41;34.30
19150;BME280;9707;49.158;8.632;2023-06-26T06:28:36;100258.97;;;29.41;34.45
19150;BME280;9707;49.158;8.632;2023-06-26T06:31:01;100269.75;;;29.42;34.55
19150;BME280;9707;49.158;8.632;2023-06-26T06:33:26;100269.59;;;29.44;34.28
19150;BME280;9707;49.158;8.632;2023-06-26T06:35:52;100275.06;;;29.44;34.48
19150;BME280;9707;49.158;8.632;2023-06-26T06:38:17;100263.06;;;29.45;34.51
19150;BME280;9707;49.158;8.632;2023-06-26T06:40:42;100276.59;;;29.46;34.33
19150;BME280;9707;49.158;8.632;2023-06-26T06:43:07;100272.81;;;29.47;34.69
19150;BME280;9707;49.158;8.632;2023-06-26T06:45:33;100266.09;;;29.50;34.15
19150;BME280;9707;49.158;8.632;2023-06-26T06:47:58;100266.94;;;29.50;34.29
19150;BME280;9707;49.158;8.632;2023-06-26T06:50:24;100267.81;;;29.51;34.50
19150;BME280;9707;49.158;8.632;2023-06-26T06:52:49;100260.09;;;29.54;34.39
19150;BME280;9707;49.158;8.632;2023-06-26T06:55:14;100254.41;;;29.56;34.79
19150;BME280;9707;49.158;8.632;2023-06-26T06:57:40;100265.22;;;29.57;34.71
19150;BME280;9707;49.158;8.632;2023-06-26T07:02:37;100261.25;;;29.60;34.18
19150;BME280;9707;49.158;8.632;2023-06-26T07:05:03;100259.16;;;29.62;34.51
19150;BME280;9707;49.158;8.632;2023-06-26T07:07:30;100262.59;;;29.64;34.38
19150;BME280;9707;49.158;8.632;2023-06-26T07:09:57;100257.78;;;29.66;34.28
19150;BME280;9707;49.158;8.632;2023-06-26T07:12:23;100256.72;;;29.67;34.38
19150;BME280;9707;49.158;8.632;2023-06-26T07:14:48;100257.41;;;29.69;34.31
19150;BME280;9707;49.158;8.632;2023-06-26T07:17:14;100252.56;;;29.71;33.86
19150;BME280;9707;49.158;8.632;2023-06-26T07:19:39;100248.78;;;29.72;34.35
19150;BME280;9707;49.158;8.632;2023-06-26T07:22:04;100248.44;;;29.75;34.03
19150;BME280;9707;49.158;8.632;2023-06-26T07:24:29;100250.78;;;29.78;34.32
19150;BME280;9707;49.158;8.632;2023-06-26T07:26:55;100244.28;;;29.79;34.33
19150;BME280;9707;49.158;8.632;2023-06-26T07:29:20;100249.56;;;29.80;33.93
19150;BME280;9707;49.158;8.632;2023-06-26T07:31:45;100245.59;;;29.83;33.74
19150;BME280;9707;49.158;8.632;2023-06-26T07:34:11;100249.03;;;29.85;33.40
19150;BME280;9707;49.158;8.632;2023-06-26T07:36:36;100240.59;;;29.86;33.87
19150;BME280;9707;49.158;8.632;2023-06-26T07:39:01;100249.31;;;29.90;33.31
19150;BME280;9707;49.158;8.632;2023-06-26T07:41:27;100243.66;;;29.91;33.15
19150;BME280;9707;49.158;8.632;2023-06-26T07:43:54;100243.44;;;29.93;33.51
19150;BME280;9707;49.158;8.632;2023-06-26T07:46:19;100234.84;;;29.96;33.45
19150;BME280;9707;49.158;8.632;2023-06-26T07:48:44;100242.91;;;29.97;33.32
19150;BME280;9707;49.158;8.632;2023-06-26T07:51:10;100251.63;;;30.01;33.32
19150;BME280;9707;49.158;8.632;2023-06-26T07:53:35;100246.78;;;30.03;33.34
19150;BME280;9707;49.158;8.632;2023-06-26T07:56:00;100239.22;;;30.05;33.24
19150;BME280;9707;49.158;8.632;2023-06-26T07:58:25;100251.91;;;30.06;32.92
19150;BME280;9707;49.158;8.632;2023-06-26T08:00:51;100247.94;;;30.08;32.98
19150;BME280;9707;49.158;8.632;2023-06-26T08:03:16;100243.09;;;30.10;33.07
19150;BME280;9707;49.158;8.632;2023-06-26T08:05:41;100252.88;;;30.13;33.20
19150;BME280;9707;49.158;8.632;2023-06-26T08:08:06;100242.59;;;30.15;32.81
19150;BME280;9707;49.158;8.632;2023-06-26T08:10:32;100241.16;;;30.19;33.35
19150;BME280;9707;49.158;8.632;2023-06-26T08:12:57;100253.88;;;30.20;33.01
19150;BME280;9707;49.158;8.632;2023-06-26T08:15:23;100247.97;;;30.23;32.77
19150;BME280;9707;49.158;8.632;2023-06-26T08:17:48;100254.16;;;30.25;32.60
19150;BME280;9707;49.158;8.632;2023-06-26T08:20:15;100250.19;;;30.27;33.03
19150;BME280;9707;49.158;8.632;2023-06-26T08:22:41;100251.69;;;30.30;32.80
19150;BME280;9707;49.158;8.632;2023-06-26T08:25:06;100255.75;;;30.34;32.63
19150;BME280;9707;49.158;8.632;2023-06-26T08:27:32;100251.97;;;30.35;32.70
19150;BME280;9707;49.158;8.632;2023-06-26T08:29:58;100249.88;;;30.37;32.76
19150;BME280;9707;49.158;8.632;2023-06-26T08:32:23;100250.53;;;30.39;32.52
19150;BME280;9707;49.158;8.632;2023-06-26T08:34:50;100253.78;;;30.42;32.66
19150;BME280;9707;49.158;8.632;2023-06-26T08:37:15;100251.69;;;30.44;32.39
19150;BME280;9707;49.158;8.632;2023-06-26T08:39:41;100258.72;;;30.47;32.40
19150;BME280;9707;49.158;8.632;2023-06-26T08:42:06;100265.72;;;30.49;32.58
19150;BME280;9707;49.158;8.632;2023-06-26T08:44:31;100268.28;;;30.51;32.42
19150;BME280;9707;49.158;8.632;2023-06-26T08:46:59;100270.63;;;30.54;32.70
19150;BME280;9707;49.158;8.632;2023-06-26T08:49:49;100277.88;;;30.55;33.04
19150;BME280;9707;49.158;8.632;2023-06-26T08:52:23;100281.28;;;30.57;32.61
19150;BME280;9707;49.158;8.632;2023-06-26T08:54:54;100290.16;;;30.59;32.81
19150;BME280;9707;49.158;8.632;2023-06-26T08:57:22;100284.47;;;30.60;33.30
19150;BME280;9707;49.158;8.632;2023-06-26T08:59:47;100280.50;;;30.63;33.31
19150;BME280;9707;49.158;8.632;2023-06-26T09:02:13;100277.56;;;30.64;32.97
19150;BME280;9707;49.158;8.632;2023-06-26T09:04:40;100277.41;;;30.66;33.70
19150;BME280;9707;49.158;8.632;2023-06-26T09:07:05;100276.19;;;30.68;33.24
19150;BME280;9707;49.158;8.632;2023-06-26T09:09:31;100273.25;;;30.70;33.63
19150;BME280;9707;49.158;8.632;2023-06-26T09:11:57;100281.09;;;30.73;33.38
19150;BME280;9707;49.158;8.632;2023-06-26T09:14:23;100283.66;;;30.74;33.46
19150;BME280;9707;49.158;8.632;2023-06-26T09:16:48;100287.94;;;30.77;33.71
19150;BME280;9707;49.158;8.632;2023-06-26T09:19:13;100290.69;;;30.77;33.45
19150;BME280;9707;49.158;8.632;2023-06-26T09:21:40;100294.09;;;30.79;33.66
19150;BME280;9707;49.158;8.632;2023-06-26T09:24:07;100290.09;;;30.81;33.94
19150;BME280;9707;49.158;8.632;2023-06-26T09:26:35;100296.94;;;30.85;33.97
19150;BME280;9707;49.158;8.632;2023-06-26T09:29:00;100299.50;;;30.87;34.28
19150;BME280;9707;49.158;8.632;2023-06-26T09:31:26;100304.59;;;30.90;33.79
19150;BME280;9707;49.158;8.632;2023-06-26T09:33:57;100301.47;;;30.93;33.79
19150;BME280;9707;49.158;8.632;2023-06-26T09:36:23;100315.88;;;30.95;33.75
19150;BME280;9707;49.158;8.632;2023-06-26T09:38:50;100310.00;;;30.98;34.33
19150;BME280;9707;49.158;8.632;2023-06-26T09:41:16;100303.28;;;31.00;33.83
19150;BME280;9707;49.158;8.632;2023-06-26T09:43:49;100307.53;;;31.03;34.00
19150;BME280;9707;49.158;8.632;2023-06-26T09:46:28;100307.16;;;31.06;34.21
19150;BME280;9707;49.158;8.632;2023-06-26T09:49:07;100300.59;;;31.07;34.00
19150;BME280;9707;49.158;8.632;2023-06-26T09:51:37;100295.94;;;31.07;34.16
19150;BME280;9707;49.158;8.632;2023-06-26T09:54:03;100297.47;;;31.10;34.20
19150;BME280;9707;49.158;8.632;2023-06-26T09:56:29;100308.09;;;31.13;33.99
19150;BME280;9707;49.158;8.632;2023-06-26T09:58:56;100301.34;;;31.15;33.86
19150;BME280;9707;49.158;8.632;2023-06-26T10:01:26;100309.41;;;31.17;34.19
19150;BME280;9707;49.158;8.632;2023-06-26T10:03:51;100309.22;;;31.18;34.12
19150;BME280;9707;49.158;8.632;2023-06-26T10:06:34;100304.41;;;31.20;33.84
19150;BME280;9707;49.158;8.632;2023-06-26T10:09:01;100300.59;;;31.21;33.73
19150;BME280;9707;49.158;8.632;2023-06-26T10:14:01;100293.03;;;31.23;34.16
19150;BME280;9707;49.158;8.632;2023-06-26T10:16:28;100300.22;;;31.24;33.96
19150;BME280;9707;49.158;8.632;2023-06-26T10:19:00;100300.88;;;31.26;33.96
19150;BME280;9707;49.158;8.632;2023-06-26T10:21:26;100297.06;;;31.27;34.18
19150;BME280;9707;49.158;8.632;2023-06-26T10:23:53;100289.69;;;31.28;34.32
19150;BME280;9707;49.158;8.632;2023-06-26T10:26:20;100293.06;;;31.30;34.10
19150;BME280;9707;49.158;8.632;2023-06-26T10:28:47;100289.31;;;31.31;34.27
19150;BME280;9707;49.158;8.632;2023-06-26T10:31:19;100291.00;;;31.32;33.88
19150;BME280;9707;49.158;8.632;2023-06-26T10:33:49;100299.91;;;31.34;34.16
19150;BME280;9707;49.158;8.632;2023-06-26T10:38:55;100290.41;;;31.36;33.83
19150;BME280;9707;49.158;8.632;2023-06-26T10:41:21;100289.34;;;31.37;33.82
19150;BME280;9707;49.158;8.632;2023-06-26T10:44:12;100294.84;;;31.37;34.19
19150;BME280;9707;49.158;8.632;2023-06-26T10:46:54;100284.72;;;31.38;33.93
19150;BME280;9707;49.158;8.632;2023-06-26T10:49:21;100287.28;;;31.39;34.37
19150;BME280;9707;49.158;8.632;2023-06-26T10:51:50;100294.28;;;31.42;33.89
19150;BME280;9707;49.158;8.632;2023-06-26T10:54:17;100289.44;;;31.44;33.56
19150;BME280;9707;49.158;8.632;2023-06-26T10:56:48;100298.16;;;31.47;33.52
19150;BME280;9707;49.158;8.632;2023-06-26T10:59:18;100298.81;;;31.49;33.45
19150;BME280;9707;49.158;8.632;2023-06-26T11:01:46;100302.22;;;31.51;33.41
19150;BME280;9707;49.158;8.632;2023-06-26T11:04:13;100283.59;;;31.53;33.05
19150;BME280;9707;49.158;8.632;2023-06-26T11:06:40;100300.78;;;31.55;32.91
19150;BME280;9707;49.158;8.632;2023-06-26T11:14:25;100311.03;;;31.61;33.07
19150;BME280;9707;49.158;8.632;2023-06-26T11:16:51;100321.84;;;31.63;33.25
19150;BME280;9707;49.158;8.632;2023-06-26T11:19:17;100325.25;;;31.65;33.32
19150;BME280;9707;49.158;8.632;2023-06-26T11:21:43;100324.88;;;31.68;33.22
19150;BME280;9707;49.158;8.632;2023-06-26T11:24:10;100321.25;;;31.67;33.49
19150;BME280;9707;49.158;8.632;2023-06-26T11:26:42;100327.44;;;31.69;33.34
19150;BME280;9707;49.158;8.632;2023-06-26T11:29:09;100332.94;;;31.69;32.83
19150;BME280;9707;49.158;8.632;2023-06-26T11:31:36;100323.63;;;31.70;32.67
19150;BME280;9707;49.158;8.632;2023-06-26T11:34:04;100319.81;;;31.71;32.46
19150;BME280;9707;49.158;8.632;2023-06-26T11:36:31;100323.44;;;31.72;32.20
19150;BME280;9707;49.158;8.632;2023-06-26T11:39:00;100330.63;;;31.73;32.35
19150;BME280;9707;49.158;8.632;2023-06-26T11:41:27;100322.22;;;31.74;32.06
19150;BME280;9707;49.158;8.632;2023-06-26T11:43:54;100320.31;;;31.75;32.24
19150;BME280;9707;49.158;8.632;2023-06-26T11:46:20;100318.00;;;31.78;31.92
19150;BME280;9707;49.158;8.632;2023-06-26T11:48:46;100324.38;;;31.79;31.93
19150;BME280;9707;49.158;8.632;2023-06-26T11:51:15;100310.41;;;31.80;31.66
19150;BME280;9707;49.158;8.632;2023-06-26T11:53:42;100308.09;;;31.84;32.22
19150;BME280;9707;49.158;8.632;2023-06-26T11:56:11;100321.69;;;31.85;32.11
19150;BME280;9707;49.158;8.632;2023-06-26T11:58:57;100319.56;;;31.87;31.61
19150;BME280;9707;49.158;8.632;2023-06-26T12:01:44;100320.44;;;31.88;32.06
19150;BME280;9707;49.158;8.632;2023-06-26T12:04:14;100321.28;;;31.88;32.23
19150;BME280;9707;49.158;8.632;2023-06-26T12:06:45;100314.53;;;31.91;31.52
19150;BME280;9707;49.158;8.632;2023-06-26T12:09:12;100331.72;;;31.93;31.39
19150;BME280;9707;49.158;8.632;2023-06-26T12:11:40;100324.09;;;31.95;31.02
19150;BME280;9707;49.158;8.632;2023-06-26T12:14:06;100324.97;;;31.95;31.48
19150;BME280;9707;49.158;8.632;2023-06-26T12:16:34;100329.22;;;31.98;31.28
19150;BME280;9707;49.158;8.632;2023-06-26T12:19:05;100319.03;;;31.98;30.39
19150;BME280;9707;49.158;8.632;2023-06-26T12:24:00;100326.06;;;32.01;30.87
19150;BME280;9707;49.158;8.632;2023-06-26T12:26:26;100323.13;;;32.02;30.37
19150;BME280;9707;49.158;8.632;2023-06-26T12:28:51;100315.72;;;32.03;30.51
19150;BME280;9707;49.158;8.632;2023-06-26T12:31:20;100318.47;;;32.03;30.20
19150;BME280;9707;49.158;8.632;2023-06-26T12:33:45;100317.41;;;32.04;30.48
19150;BME280;9707;49.158;8.632;2023-06-26T12:36:12;100323.56;;;32.06;30.98
19150;BME280;9707;49.158;8.632;2023-06-26T12:38:37;100323.56;;;32.06;29.40
19150;BME280;9707;49.158;8.632;2023-06-26T12:41:03;100325.28;;;32.07;28.93
19150;BME280;9707;49.158;8.632;2023-06-26T12:43:28;100333.56;;;32.07;28.88
19150;BME280;9707;49.158;8.632;2023-06-26T12:45:55;100318.53;;;32.09;28.67
19150;BME280;9707;49.158;8.632;2023-06-26T12:48:21;100315.56;;;32.11;28.49
19150;BME280;9707;49.158;8.632;2023-06-26T12:50:46;100318.97;;;32.13;29.31
19150;BME280;9707;49.158;8.632;2023-06-26T12:53:11;100314.09;;;32.15;29.54
19150;BME280;9707;49.158;8.632;2023-06-26T12:55:37;100309.47;;;32.15;29.37
19150;BME280;9707;49.158;8.632;2023-06-26T12:58:02;100313.06;;;32.16;29.37
19150;BME280;9707;49.158;8.632;2023-06-26T13:00:27;100315.63;;;32.17;28.93
19150;BME280;9707;49.158;8.632;2023-06-26T13:02:53;100306.28;;;32.18;28.56
19150;BME280;9707;49.158;8.632;2023-06-26T13:05:18;100321.56;;;32.21;28.24
19150;BME280;9707;49.158;8.632;2023-06-26T13:07:44;100324.34;;;32.21;28.29
19150;BME280;9707;49.158;8.632;2023-06-26T13:10:09;100309.50;;;32.22;28.16
19150;BME280;9707;49.158;8.632;2023-06-26T13:12:34;100304.66;;;32.24;28.37